Time;durP1;ratioP1;P1;durP2;ratioP2;P2;SDS_P1;SDS_P2;PMS_P1;PMS_P2;Temp;Humidity;BMP_temperature;BMP_pressure;BME280_temperature;BME280_humidity;BME280_pressure;Samples;Min_cycle;Max_cycle;Signal;HPM_P1;HPM_P2
2022/07/07 00:01:26;;;;;;;12.77;7.30;;;;;;;13.28;55.77;100982.03;5022883;28;20107;-70
2022/07/07 00:03:52;;;;;;;9.18;8.68;;;;;;;13.27;56.52;100982.94;5028652;28;20131;-70
2022/07/07 00:06:18;;;;;;;10.55;9.68;;;;;;;13.24;57.31;100983.81;5027427;28;20040;-71
2022/07/07 00:08:44;;;;;;;10.55;9.82;;;;;;;13.12;57.32;100979.47;5021774;28;20116;-71
2022/07/07 00:11:10;;;;;;;9.95;9.25;;;;;;;13.04;58.03;100977.81;5023081;28;20606;-70
2022/07/07 00:13:35;;;;;;;8.40;7.88;;;;;;;13.13;57.37;100980.38;5022836;28;20038;-70
2022/07/07 00:16:01;;;;;;;9.60;8.80;;;;;;;13.31;57.51;100976.72;5022360;28;20042;-69
2022/07/07 00:18:26;;;;;;;8.95;8.15;;;;;;;13.39;56.96;100977.50;5024007;28;20083;-70
2022/07/07 00:20:52;;;;;;;7.38;6.82;;;;;;;13.45;56.84;100976.56;5020882;28;20042;-70
2022/07/07 00:23:18;;;;;;;8.15;7.57;;;;;;;13.53;56.57;100980.88;5024110;28;20033;-70
2022/07/07 00:25:43;;;;;;;7.28;6.70;;;;;;;13.63;55.78;100973.69;5021350;28;20489;-70
2022/07/07 00:28:08;;;;;;;7.20;6.60;;;;;;;13.70;56.04;100977.16;5022366;28;20041;-70
2022/07/07 00:30:34;;;;;;;6.43;5.93;;;;;;;13.77;56.08;100969.09;5023212;28;20034;-70
2022/07/07 00:32:59;;;;;;;6.95;6.38;;;;;;;13.82;55.82;100967.25;5020916;28;20065;-70
2022/07/07 00:35:24;;;;;;;7.05;5.15;;;;;;;13.88;55.86;100966.31;5024157;28;20064;-70
2022/07/07 00:37:50;;;;;;;5.88;5.47;;;;;;;13.93;55.66;100969.78;5020779;28;20092;-69
2022/07/07 00:40:15;;;;;;;6.78;5.38;;;;;;;14.03;55.36;100966.09;5023526;28;20048;-71
2022/07/07 00:42:40;;;;;;;6.10;5.70;;;;;;;14.11;55.55;100959.81;5018489;28;20034;-70
2022/07/07 00:45:06;;;;;;;6.18;5.72;;;;;;;14.12;55.50;100958.91;5032031;28;20488;-71
2022/07/07 00:47:33;;;;;;;7.25;6.07;;;;;;;14.07;55.97;100955.44;5024684;28;20065;-70
2022/07/07 00:49:58;;;;;;;8.10;6.63;;;;;;;14.06;56.98;100953.69;5028284;28;20032;-70
2022/07/07 00:52:24;;;;;;;7.03;6.63;;;;;;;14.10;55.64;100951.00;5026115;28;20037;-70
2022/07/07 00:54:55;;;;;;;7.28;6.72;;;;;;;14.09;56.36;100948.34;5022125;28;20052;-70
2022/07/07 00:57:22;;;;;;;7.57;6.97;;;;;;;14.11;56.34;100946.56;5022795;28;20185;-70
2022/07/07 00:59:48;;;;;;;9.40;7.80;;;;;;;14.21;55.50;100938.44;5026708;28;20076;-70
2022/07/07 01:02:14;;;;;;;6.30;5.80;;;;;;;14.27;55.25;100937.47;5027073;28;20060;-70
2022/07/07 01:04:39;;;;;;;6.45;5.82;;;;;;;14.28;55.16;100939.22;5020501;28;20095;-70
2022/07/07 01:07:04;;;;;;;6.95;6.30;;;;;;;14.31;55.00;100933.88;5023048;28;20065;-70
2022/07/07 01:09:30;;;;;;;6.47;6.05;;;;;;;14.35;55.13;100932.91;5028358;28;20037;-70
2022/07/07 01:11:57;;;;;;;6.00;5.55;;;;;;;14.36;55.31;100937.34;5025599;28;20033;-71
2022/07/07 01:14:24;;;;;;;5.68;4.60;;;;;;;14.43;54.71;100931.00;5021768;28;20060;-70
2022/07/07 01:16:51;;;;;;;6.60;5.97;;;;;;;14.44;54.35;100926.59;5023455;28;20033;-70
2022/07/07 01:19:18;;;;;;;4.80;4.40;;;;;;;14.45;54.56;100921.25;5020504;28;20034;-70
2022/07/07 01:21:55;;;;;;;5.50;5.10;;;;;;;14.46;54.83;100933.66;5021852;28;20497;-70
2022/07/07 01:24:22;;;;;;;7.20;5.65;;;;;;;14.34;55.33;100925.84;5023333;28;20469;-70
2022/07/07 01:26:47;;;;;;;5.18;4.78;;;;;;;14.37;55.33;100933.78;5020384;28;20041;-70
2022/07/07 01:29:13;;;;;;;6.32;5.93;;;;;;;14.36;54.74;100932.03;5022086;28;20404;-70
2022/07/07 01:31:39;;;;;;;7.47;5.45;;;;;;;14.40;54.50;100931.06;5020954;28;20030;-70
2022/07/07 01:34:04;;;;;;;5.65;5.25;;;;;;;14.41;55.18;100924.00;5021319;28;20041;-70
2022/07/07 01:36:30;;;;;;;8.10;4.70;;;;;;;14.39;55.17;100920.47;5022794;28;20476;-70
2022/07/07 01:38:55;;;;;;;9.60;4.80;;;;;;;14.43;54.76;100912.41;5021704;28;20515;-70
2022/07/07 01:41:20;;;;;;;5.97;4.97;;;;;;;14.45;55.30;100910.63;5023192;28;20456;-70
2022/07/07 01:43:46;;;;;;;5.28;4.78;;;;;;;14.37;55.41;100917.84;5019495;28;20049;-70
2022/07/07 01:46:11;;;;;;;5.50;4.65;;;;;;;14.48;54.92;100910.56;5022277;28;20038;-69
2022/07/07 01:48:36;;;;;;;5.45;4.88;;;;;;;14.58;54.56;100907.81;5021525;28;20060;-70
2022/07/07 01:51:03;;;;;;;5.22;4.88;;;;;;;14.59;54.78;100907.78;5020007;28;20477;-70
2022/07/07 01:53:28;;;;;;;5.72;5.32;;;;;;;14.63;54.27;100904.16;5025487;28;20033;-70
2022/07/07 01:55:53;;;;;;;6.20;5.57;;;;;;;14.65;54.69;100896.19;5023037;28;20381;-70
2022/07/07 01:58:19;;;;;;;6.13;5.53;;;;;;;14.64;54.60;100895.28;5027526;28;20529;-70
2022/07/07 02:00:44;;;;;;;7.93;4.60;;;;;;;14.67;55.07;100902.31;5022023;28;20045;-70
2022/07/07 02:03:09;;;;;;;5.45;4.95;;;;;;;14.74;54.84;100893.34;5020781;28;20037;-70
2022/07/07 02:05:35;;;;;;;5.32;4.93;;;;;;;14.81;54.86;100891.47;5021749;28;20156;-70
2022/07/07 02:08:00;;;;;;;6.05;5.03;;;;;;;14.77;54.72;100890.63;5019981;28;20041;-70
2022/07/07 02:13:09;;;;;;;5.22;4.72;;;;;;;14.79;55.21;100887.97;5025959;28;20480;-71
2022/07/07 02:15:35;;;;;;;5.60;5.10;;;;;;;14.80;54.85;100890.59;5017390;28;20061;-70
2022/07/07 02:18:00;;;;;;;8.02;5.50;;;;;;;14.82;54.67;100891.44;5023337;28;20373;-70
2022/07/07 02:20:26;;;;;;;5.97;5.15;;;;;;;14.81;54.74;100887.03;5026264;28;20056;-71
2022/07/07 02:22:51;;;;;;;5.80;5.05;;;;;;;14.80;54.51;100890.59;5023971;28;20073;-70
2022/07/07 02:25:17;;;;;;;5.88;5.45;;;;;;;14.81;54.64;100889.69;5025060;28;20069;-69
2022/07/07 02:27:43;;;;;;;8.27;5.20;;;;;;;14.86;54.85;100889.63;5025588;28;20121;-70
2022/07/07 02:30:08;;;;;;;6.82;6.18;;;;;;;14.89;54.45;100885.13;5006012;28;20077;-70
2022/07/07 02:32:34;;;;;;;5.88;5.45;;;;;;;14.96;54.12;100874.34;5025836;28;20042;-71
2022/07/07 02:35:01;;;;;;;6.93;6.43;;;;;;;14.96;54.31;100885.88;5026631;28;20065;-71
2022/07/07 02:37:27;;;;;;;6.35;5.85;;;;;;;14.96;54.54;100885.00;5026338;28;20415;-70
2022/07/07 02:39:52;;;;;;;7.20;6.68;;;;;;;14.93;54.65;100880.59;5029658;28;20037;-70
2022/07/07 02:42:17;;;;;;;5.97;5.55;;;;;;;14.95;54.95;100878.81;5019067;28;20396;-70
2022/07/07 02:44:43;;;;;;;7.25;6.85;;;;;;;14.96;55.06;100885.00;5026041;28;20381;-71
2022/07/07 02:47:08;;;;;;;7.55;7.05;;;;;;;14.94;54.91;100889.47;5026029;28;20418;-70
2022/07/07 02:49:34;;;;;;;8.95;5.75;;;;;;;14.96;54.78;100885.88;5023050;28;20061;-70
2022/07/07 02:51:59;;;;;;;7.55;6.72;;;;;;;14.96;54.75;100890.31;5007014;28;20044;-70
2022/07/07 02:54:25;;;;;;;7.40;6.90;;;;;;;14.83;55.50;100900.31;5024072;28;20065;-70
2022/07/07 02:56:50;;;;;;;7.38;6.18;;;;;;;14.80;55.39;100901.25;5023991;28;20424;-71
2022/07/07 02:59:15;;;;;;;6.90;6.30;;;;;;;14.75;55.73;100904.84;5024956;28;20108;-71
2022/07/07 03:01:41;;;;;;;7.97;7.38;;;;;;;14.71;56.94;100911.13;5022121;28;20037;-70
2022/07/07 03:04:06;;;;;;;11.35;8.15;;;;;;;14.65;56.89;100917.44;5025837;28;20420;-71
2022/07/07 03:06:31;;;;;;;7.55;6.60;;;;;;;14.52;57.81;100916.72;5022935;28;20037;-70
2022/07/07 03:08:57;;;;;;;6.82;6.32;;;;;;;14.39;58.17;100926.66;5024596;28;20060;-71
2022/07/07 03:11:22;;;;;;;5.80;5.35;;;;;;;14.32;59.46;100918.81;5023568;28;20044;-70
2022/07/07 03:13:47;;;;;;;5.72;5.13;;;;;;;14.15;59.34;100917.31;5021975;28;20132;-70
2022/07/07 03:16:13;;;;;;;6.20;5.63;;;;;;;14.11;59.66;100912.91;5022946;28;20042;-70
2022/07/07 03:18:38;;;;;;;6.95;6.30;;;;;;;14.08;61.47;100914.75;5025385;28;20045;-70
2022/07/07 03:21:03;;;;;;;7.13;6.63;;;;;;;14.02;62.66;100916.59;5021612;28;20045;-70
2022/07/07 03:23:29;;;;;;;9.70;9.00;;;;;;;14.00;62.92;100921.03;5024904;28;20037;-70
2022/07/07 03:25:54;;;;;;;11.25;10.27;;;;;;;14.01;63.95;100920.13;5022657;28;20056;-70
2022/07/07 03:28:20;;;;;;;8.18;7.47;;;;;;;13.97;65.29;100910.47;5023335;28;20110;-70
2022/07/07 03:30:46;;;;;;;8.45;7.85;;;;;;;14.00;64.13;100913.06;5025540;28;20511;-70
2022/07/07 03:33:11;;;;;;;8.50;7.93;;;;;;;13.99;64.90;100910.44;5027377;28;20081;-70
2022/07/07 03:35:38;;;;;;;8.32;7.72;;;;;;;14.02;64.18;100905.09;5025814;28;20060;-70
2022/07/07 03:38:04;;;;;;;7.95;7.30;;;;;;;14.05;65.10;100902.41;5022470;28;20064;-70
2022/07/07 03:40:29;;;;;;;13.98;12.95;;;;;;;14.10;65.73;100897.91;5024130;28;20484;-70
2022/07/07 03:42:54;;;;;;;17.05;16.02;;;;;;;14.13;65.74;100891.69;5023225;28;20034;-70
2022/07/07 03:45:20;;;;;;;17.55;16.48;;;;;;;14.13;67.89;100889.03;5021359;28;20053;-70
2022/07/07 03:47:45;;;;;;;16.60;15.50;;;;;;;14.12;68.53;100889.91;5024551;28;20037;-71
2022/07/07 03:50:10;;;;;;;17.52;16.17;;;;;;;14.14;68.41;100883.66;5024527;28;20286;-70
2022/07/07 03:52:36;;;;;;;14.55;13.57;;;;;;;14.21;67.29;100887.13;5031426;28;20120;-69
2022/07/07 03:55:02;;;;;;;8.60;8.00;;;;;;;14.27;67.88;100879.06;5026963;28;20124;-69
2022/07/07 03:57:27;;;;;;;8.63;7.90;;;;;;;14.27;70.03;100881.72;5027052;28;20113;-70
2022/07/07 03:59:53;;;;;;;13.88;12.68;;;;;;;14.25;69.47;100886.16;5022759;28;20488;-70
2022/07/07 04:02:18;;;;;;;15.45;14.45;;;;;;;14.25;68.96;100875.53;5026323;28;20472;-70
2022/07/07 04:04:43;;;;;;;15.50;14.60;;;;;;;14.35;67.96;100879.81;5026142;28;20121;-70
2022/07/07 04:07:09;;;;;;;20.30;19.02;;;;;;;14.35;70.17;100879.81;5024102;28;20037;-70
2022/07/07 04:09:34;;;;;;;13.02;12.32;;;;;;;14.37;69.45;100877.13;5026706;28;20508;-70
2022/07/07 04:11:59;;;;;;;13.77;11.25;;;;;;;14.38;69.27;100874.47;5029112;28;20488;-70
2022/07/07 04:14:25;;;;;;;11.98;11.02;;;;;;;14.37;70.21;100883.31;5027121;28;20063;-70
2022/07/07 04:16:50;;;;;;;8.32;7.63;;;;;;;14.33;70.15;100878.97;5024345;28;20076;-70
2022/07/07 04:19:16;;;;;;;8.68;7.97;;;;;;;14.31;70.58;100878.13;5021436;28;20041;-71
2022/07/07 04:21:41;;;;;;;9.43;8.65;;;;;;;14.35;70.04;100868.31;5022797;28;20052;-70
2022/07/07 04:24:07;;;;;;;7.10;6.60;;;;;;;14.33;69.98;100872.75;5024787;28;20025;-70
2022/07/07 04:26:32;;;;;;;9.57;8.77;;;;;;;14.35;70.74;100863.88;5021936;28;20044;-70
2022/07/07 04:28:57;;;;;;;12.85;11.80;;;;;;;14.31;70.62;100862.19;5022509;28;20044;-70
2022/07/07 04:31:23;;;;;;;14.45;13.50;;;;;;;14.34;70.69;100864.78;5022279;28;20044;-70
2022/07/07 04:33:48;;;;;;;13.98;13.07;;;;;;;14.34;70.17;100867.44;5021536;28;20121;-70
2022/07/07 04:36:14;;;;;;;14.30;13.32;;;;;;;14.26;71.64;100856.06;5024108;28;20033;-70
2022/07/07 04:38:40;;;;;;;16.38;15.32;;;;;;;14.30;72.35;100855.09;5020683;28;20037;-71
2022/07/07 04:41:05;;;;;;;12.63;11.35;;;;;;;14.27;73.52;100856.94;5022845;28;20033;-70
2022/07/07 04:43:31;;;;;;;11.70;10.63;;;;;;;14.33;73.28;100852.44;5016573;28;20562;-69
2022/07/07 04:45:56;;;;;;;10.57;9.88;;;;;;;14.37;73.92;100840.84;5023627;28;20048;-70
2022/07/07 04:48:21;;;;;;;9.25;8.65;;;;;;;14.46;73.09;100838.03;5027398;28;20424;-70
2022/07/07 04:50:47;;;;;;;9.60;9.00;;;;;;;14.58;72.57;100836.97;5028824;28;20063;-69
2022/07/07 04:53:12;;;;;;;8.02;7.38;;;;;;;14.68;74.22;100837.69;5026798;28;20037;-70
2022/07/07 04:55:37;;;;;;;9.43;8.82;;;;;;;14.75;71.81;100834.03;5026411;28;20036;-70
2022/07/07 04:58:02;;;;;;;9.10;8.50;;;;;;;14.81;73.01;100835.69;5027159;28;20017;-70
2022/07/07 05:00:28;;;;;;;9.05;8.35;;;;;;;14.77;73.39;100834.84;5027706;28;20067;-70
2022/07/07 05:02:53;;;;;;;8.35;7.28;;;;;;;14.77;74.53;100844.59;5024941;28;20061;-70
2022/07/07 05:05:18;;;;;;;10.15;9.30;;;;;;;14.74;75.23;100844.66;5027589;28;20030;-70
2022/07/07 05:07:44;;;;;;;8.05;7.35;;;;;;;14.72;75.63;100842.03;5025306;28;20092;-70
2022/07/07 05:10:10;;;;;;;9.02;8.25;;;;;;;14.72;74.60;100842.03;5023570;28;20488;-70
2022/07/07 05:12:35;;;;;;;9.77;8.98;;;;;;;14.79;75.29;100843.66;5020693;28;20451;-70
2022/07/07 05:15:01;;;;;;;8.48;7.68;;;;;;;14.80;74.77;100837.47;5019448;28;20041;-70
2022/07/07 05:17:26;;;;;;;10.43;9.48;;;;;;;14.79;75.03;100830.38;5021675;28;20476;-70
2022/07/07 05:19:51;;;;;;;15.48;10.38;;;;;;;14.83;73.88;100839.19;5019851;28;20088;-70
2022/07/07 05:22:17;;;;;;;10.88;8.80;;;;;;;14.79;75.29;100825.06;5022280;28;20095;-70
2022/07/07 05:24:42;;;;;;;8.57;7.97;;;;;;;14.89;75.19;100824.00;5019930;28;20046;-69
2022/07/07 05:27:07;;;;;;;8.55;7.75;;;;;;;14.99;73.87;100818.50;5023265;28;20037;-70
2022/07/07 05:29:33;;;;;;;10.85;10.02;;;;;;;15.08;73.82;100815.66;5025372;28;20112;-70
2022/07/07 05:31:58;;;;;;;8.50;7.78;;;;;;;15.17;72.40;100822.56;5003915;28;20076;-70
2022/07/07 05:34:24;;;;;;;10.20;9.20;;;;;;;15.16;72.48;100819.03;5026935;28;20044;-71
2022/07/07 05:36:49;;;;;;;14.15;13.10;;;;;;;15.00;74.07;100825.56;5020348;28;20451;-70
2022/07/07 05:39:14;;;;;;;12.65;9.95;;;;;;;15.04;74.22;100820.16;5022587;28;20067;-70
2022/07/07 05:41:41;;;;;;;9.80;9.05;;;;;;;15.07;73.48;100825.41;5018874;28;20072;-70
2022/07/07 05:44:06;;;;;;;10.75;9.65;;;;;;;15.17;73.07;100825.22;5022395;28;20037;-70
2022/07/07 05:46:31;;;;;;;10.45;8.77;;;;;;;15.23;72.44;100830.44;5028066;28;20125;-69
2022/07/07 05:48:57;;;;;;;9.73;8.93;;;;;;;15.29;71.70;100827.63;5027549;28;20068;-70
2022/07/07 05:51:22;;;;;;;9.27;8.32;;;;;;;15.26;71.79;100820.59;5021741;28;20042;-70
2022/07/07 05:53:48;;;;;;;9.20;8.40;;;;;;;15.32;72.17;100819.59;5021905;28;20029;-70
2022/07/07 05:56:13;;;;;;;9.93;8.98;;;;;;;15.42;71.85;100815.81;5025970;28;20052;-70
2022/07/07 05:58:38;;;;;;;8.40;7.55;;;;;;;15.46;71.93;100806.00;5021167;28;20096;-70
2022/07/07 06:01:04;;;;;;;9.32;8.73;;;;;;;15.68;71.09;100804.59;5026104;28;20082;-71
2022/07/07 06:03:30;;;;;;;8.15;7.40;;;;;;;15.80;71.02;100805.25;5025944;28;20052;-71
2022/07/07 06:05:55;;;;;;;7.30;6.80;;;;;;;15.92;69.64;100810.28;5026867;28;20768;-69
2022/07/07 06:08:20;;;;;;;8.07;7.57;;;;;;;15.95;70.34;100808.44;5029048;28;20037;-70
2022/07/07 06:10:46;;;;;;;8.45;6.68;;;;;;;16.02;69.96;100806.50;5027707;28;20029;-70
2022/07/07 06:13:11;;;;;;;7.57;6.95;;;;;;;16.05;71.31;100806.44;5028597;28;20411;-70
2022/07/07 06:15:36;;;;;;;8.45;7.65;;;;;;;16.14;70.27;100808.00;5024307;28;20053;-70
2022/07/07 06:18:03;;;;;;;7.40;6.82;;;;;;;16.28;69.56;100797.88;5019792;28;20041;-70
2022/07/07 06:20:29;;;;;;;9.55;8.60;;;;;;;16.19;70.31;100806.97;5020437;28;20037;-70
2022/07/07 06:22:54;;;;;;;8.15;7.65;;;;;;;16.20;68.87;100806.06;5023919;28;20454;-70
2022/07/07 06:25:20;;;;;;;7.53;6.78;;;;;;;16.32;68.65;100807.56;5026558;28;20032;-71
2022/07/07 06:27:45;;;;;;;7.85;7.10;;;;;;;16.33;68.70;100805.75;5026281;28;20073;-70
2022/07/07 06:30:11;;;;;;;9.88;7.63;;;;;;;16.40;68.71;100797.56;5026501;28;20131;-71
2022/07/07 06:32:36;;;;;;;9.27;8.00;;;;;;;16.68;68.13;100802.16;5026963;28;20033;-71
2022/07/07 06:35:02;;;;;;;8.90;8.23;;;;;;;16.97;67.39;100796.03;5027789;28;20047;-70
2022/07/07 06:37:27;;;;;;;8.20;7.57;;;;;;;17.17;66.72;100792.81;5027181;28;20049;-70
2022/07/07 06:39:53;;;;;;;8.27;7.68;;;;;;;17.12;66.26;100789.41;5022835;28;20029;-71
2022/07/07 06:42:18;;;;;;;7.40;6.90;;;;;;;17.21;65.46;100790.91;5017726;28;20554;-71
2022/07/07 06:44:48;;;;;;;7.78;7.22;;;;;;;17.16;65.51;100790.19;4998965;28;20057;-71
2022/07/07 06:47:13;;;;;;;7.45;6.88;;;;;;;17.26;65.29;100784.53;5020630;28;20076;-70
2022/07/07 06:49:38;;;;;;;7.88;7.35;;;;;;;17.28;66.33;100782.69;5020026;28;20091;-71
2022/07/07 06:52:04;;;;;;;7.50;7.00;;;;;;;17.15;66.54;100775.97;5021928;28;20468;-70
2022/07/07 06:54:29;;;;;;;8.60;7.18;;;;;;;17.12;66.61;100776.06;5018872;28;20038;-70
2022/07/07 06:56:55;;;;;;;7.60;7.10;;;;;;;17.18;66.77;100777.69;5021950;28;20129;-71
2022/07/07 06:59:20;;;;;;;6.78;6.38;;;;;;;17.19;66.29;100782.13;5018841;28;20102;-71
2022/07/07 07:01:45;;;;;;;7.18;6.68;;;;;;;17.11;66.46;100773.44;5024271;28;20029;-70
2022/07/07 07:04:13;;;;;;;7.90;7.38;;;;;;;17.11;67.30;100781.44;5026329;28;20033;-70
2022/07/07 07:06:40;;;;;;;8.50;7.90;;;;;;;17.03;68.28;100769.22;5029215;28;20484;-71
2022/07/07 07:09:05;;;;;;;7.15;6.65;;;;;;;16.97;68.11;100769.38;5032932;28;20116;-71
2022/07/07 07:11:30;;;;;;;7.82;7.32;;;;;;;16.83;67.66;100772.44;5030360;28;20108;-70
2022/07/07 07:13:56;;;;;;;7.25;6.75;;;;;;;16.63;68.11;100778.28;5030791;28;20116;-70
2022/07/07 07:16:23;;;;;;;8.07;7.47;;;;;;;16.38;70.17;100783.41;5012936;28;20419;-70
2022/07/07 07:18:48;;;;;;;7.93;7.43;;;;;;;16.34;69.33;100775.53;5030959;28;20488;-71
2022/07/07 07:21:14;;;;;;;8.20;7.50;;;;;;;16.32;69.78;100775.59;5029471;28;20116;-70
2022/07/07 07:23:40;;;;;;;7.57;7.07;;;;;;;16.33;69.52;100780.00;5030771;28;20112;-70
2022/07/07 07:26:06;;;;;;;8.82;8.23;;;;;;;16.23;70.26;100783.81;5029499;28;20059;-71
2022/07/07 07:28:32;;;;;;;9.50;8.90;;;;;;;15.86;72.35;100781.19;5031176;28;20068;-70
2022/07/07 07:30:57;;;;;;;9.93;9.15;;;;;;;15.75;72.60;100776.97;5025141;28;20069;-71
2022/07/07 07:33:22;;;;;;;6.45;5.95;;;;;;;15.85;72.79;100777.66;5023159;28;20120;-70
2022/07/07 07:35:48;;;;;;;10.15;9.35;;;;;;;15.74;73.92;100775.22;5019375;28;20034;-70
2022/07/07 07:38:13;;;;;;;10.20;9.27;;;;;;;15.67;76.73;100770.94;5024455;28;20041;-70
2022/07/07 07:40:39;;;;;;;9.90;9.02;;;;;;;15.52;76.95;100771.28;5026418;28;20025;-71
2022/07/07 07:43:04;;;;;;;9.82;9.10;;;;;;;15.47;76.90;100765.19;5024876;28;20503;-70
2022/07/07 07:45:30;;;;;;;13.00;12.13;;;;;;;15.31;78.97;100759.34;5022343;28;20515;-71
2022/07/07 07:47:56;;;;;;;16.70;15.70;;;;;;;15.36;78.55;100760.13;5023270;28;20040;-71
2022/07/07 07:50:22;;;;;;;33.33;31.40;;;;;;;15.41;78.79;100760.03;5023255;28;20516;-70
2022/07/07 07:52:48;;;;;;;40.45;38.40;;;;;;;15.49;78.84;100752.75;5021303;28;20038;-70
2022/07/07 07:55:16;;;;;;;35.47;33.50;;;;;;;15.47;78.55;100751.91;5027992;28;20434;-71
2022/07/07 07:57:43;;;;;;;9.23;8.30;;;;;;;15.53;79.10;100755.28;5021909;28;20054;-71
2022/07/07 08:00:11;;;;;;;8.55;7.95;;;;;;;15.74;78.59;100753.94;5023316;28;20056;-71
2022/07/07 08:02:39;;;;;;;9.20;7.32;;;;;;;15.77;78.43;100748.56;5023323;28;20029;-71
2022/07/07 08:05:05;;;;;;;10.27;8.52;;;;;;;15.83;78.46;100750.19;5022778;28;20080;-70
2022/07/07 08:07:32;;;;;;;9.40;8.50;;;;;;;15.89;77.67;100755.34;5023254;28;20029;-70
2022/07/07 08:09:58;;;;;;;9.48;8.70;;;;;;;15.77;77.51;100753.88;5024293;28;20038;-71
2022/07/07 08:12:23;;;;;;;9.77;8.88;;;;;;;15.77;77.17;100750.31;5022041;28;20033;-71
2022/07/07 08:14:49;;;;;;;8.15;7.65;;;;;;;15.75;76.83;100747.72;5023049;28;20044;-71
2022/07/07 08:17:14;;;;;;;10.00;8.88;;;;;;;15.79;78.31;100748.50;5021088;28;20038;-70
2022/07/07 08:19:40;;;;;;;10.30;9.40;;;;;;;16.04;76.86;100750.56;5024199;28;20029;-71
2022/07/07 08:22:05;;;;;;;9.10;8.50;;;;;;;16.25;76.13;100742.03;5021215;28;20510;-70
2022/07/07 08:24:31;;;;;;;9.70;8.90;;;;;;;16.52;75.76;100743.06;5026755;28;20513;-71
2022/07/07 08:26:56;;;;;;;9.82;9.13;;;;;;;16.76;74.56;100741.50;5025746;28;20042;-70
2022/07/07 08:29:21;;;;;;;8.48;7.97;;;;;;;17.14;72.84;100736.91;5015030;28;20038;-69
2022/07/07 08:31:47;;;;;;;7.95;7.38;;;;;;;17.32;72.09;100738.13;5015948;28;20033;-71
2022/07/07 08:34:12;;;;;;;7.70;7.05;;;;;;;17.22;71.89;100736.69;5024493;28;20065;-71
2022/07/07 08:36:38;;;;;;;9.23;8.57;;;;;;;17.24;71.87;100737.50;5021964;28;20030;-71
2022/07/07 08:39:03;;;;;;;16.55;7.90;;;;;;;17.26;72.17;100740.97;5023046;28;20499;-71
2022/07/07 08:41:29;;;;;;;9.15;8.25;;;;;;;17.35;71.60;100737.19;5024563;28;20030;-71
2022/07/07 08:43:55;;;;;;;9.00;8.20;;;;;;;16.99;72.32;100732.88;5025496;28;20021;-71
2022/07/07 08:46:21;;;;;;;8.65;7.78;;;;;;;16.99;72.72;100732.88;5023443;28;20032;-71
2022/07/07 08:48:47;;;;;;;8.15;6.70;;;;;;;17.12;72.79;100727.19;5025255;28;20072;-72
2022/07/07 08:51:15;;;;;;;8.35;7.65;;;;;;;17.25;72.57;100734.78;5025697;28;20281;-70
2022/07/07 08:53:44;;;;;;;9.45;7.53;;;;;;;17.23;72.81;100736.59;5023207;28;20037;-69
2022/07/07 08:56:09;;;;;;;10.27;9.57;;;;;;;17.35;71.26;100732.72;5020515;28;20037;-70
2022/07/07 08:58:35;;;;;;;9.77;8.98;;;;;;;17.12;72.96;100732.53;5023262;28;20056;-69
2022/07/07 09:01:02;;;;;;;8.35;7.78;;;;;;;17.09;72.64;100730.84;5026893;28;20472;-69
2022/07/07 09:03:28;;;;;;;8.98;8.27;;;;;;;16.95;73.54;100725.91;5030173;28;20514;-69
2022/07/07 09:05:55;;;;;;;8.35;7.72;;;;;;;16.95;73.64;100736.59;5028031;28;20033;-70
2022/07/07 09:08:22;;;;;;;9.32;8.40;;;;;;;16.94;73.57;100739.28;5029311;28;20116;-70
2022/07/07 09:10:48;;;;;;;8.85;8.23;;;;;;;16.84;74.49;100736.88;5030403;28;20029;-70
2022/07/07 09:13:30;;;;;;;8.13;7.43;;;;;;;16.99;74.25;100738.22;5028946;28;20549;-70
2022/07/07 09:16:01;;;;;;;11.05;10.15;;;;;;;16.91;74.35;100745.56;5024691;28;20059;-69
2022/07/07 09:18:36;;;;;;;8.65;7.95;;;;;;;16.76;75.12;100740.63;5022220;28;20045;-70
2022/07/07 09:21:04;;;;;;;12.48;11.35;;;;;;;16.70;76.27;100743.50;5028169;28;20041;-69
2022/07/07 09:23:30;;;;;;;14.15;13.25;;;;;;;16.80;77.03;100739.69;5027355;28;20120;-70
2022/07/07 09:25:56;;;;;;;10.30;9.57;;;;;;;16.81;77.09;100733.44;5022170;28;20036;-70
2022/07/07 09:28:21;;;;;;;8.10;7.50;;;;;;;16.92;75.84;100736.66;5026474;28;20120;-70
2022/07/07 09:30:48;;;;;;;9.98;9.18;;;;;;;16.71;77.15;100740.75;5028929;28;20476;-69
2022/07/07 09:33:22;;;;;;;9.05;8.43;;;;;;;16.75;76.83;100737.09;5026390;28;20408;-70
2022/07/07 09:38:35;;;;;;;10.57;9.52;;;;;;;16.71;78.30;100743.44;5027074;28;20033;-70
2022/07/07 09:41:05;;;;;;;8.02;7.53;;;;;;;16.54;80.08;100743.91;5029028;28;20033;-70
2022/07/07 09:43:32;;;;;;;10.35;9.65;;;;;;;16.44;80.33;100750.41;5029118;28;20060;-70
2022/07/07 09:46:20;;;;;;;8.45;7.85;;;;;;;16.31;83.47;100738.31;5028912;28;20042;-70
2022/07/07 09:48:47;;;;;;;9.02;8.43;;;;;;;16.38;83.43;100742.59;5028375;28;20029;-70
2022/07/07 09:51:16;;;;;;;8.63;8.02;;;;;;;16.47;83.13;100733.47;5028392;28;20045;-70
2022/07/07 09:53:52;;;;;;;11.45;10.75;;;;;;;16.52;82.50;100732.41;5028225;28;20041;-70
2022/07/07 09:56:21;;;;;;;11.85;11.05;;;;;;;16.64;82.89;100732.09;5029511;28;20038;-70
2022/07/07 09:58:46;;;;;;;15.32;14.20;;;;;;;16.70;82.54;100733.69;5021039;28;20124;-70
2022/07/07 10:01:12;;;;;;;22.13;20.83;;;;;;;16.93;81.31;100741.06;5024725;28;20108;-70
2022/07/07 10:03:39;;;;;;;17.50;16.52;;;;;;;17.15;79.61;100735.09;5022372;28;20136;-69
2022/07/07 10:06:05;;;;;;;32.85;31.25;;;;;;;17.18;80.31;100732.34;5020031;28;20069;-69
2022/07/07 10:08:32;;;;;;;21.30;20.20;;;;;;;17.13;78.83;100729.81;5023433;28;20029;-69
2022/07/07 10:10:59;;;;;;;23.13;21.95;;;;;;;17.30;79.28;100737.31;5026992;28;20072;-70
2022/07/07 10:13:29;;;;;;;25.95;24.50;;;;;;;17.32;78.95;100732.81;5027550;28;20036;-70
2022/07/07 10:15:55;;;;;;;28.42;27.05;;;;;;;17.40;80.20;100724.56;5010655;28;20029;-69
2022/07/07 10:18:21;;;;;;;29.38;27.88;;;;;;;17.60;79.62;100727.44;5028087;28;20485;-70
2022/07/07 10:20:47;;;;;;;17.88;16.98;;;;;;;17.99;77.15;100735.13;5025946;28;20604;-69
2022/07/07 10:23:12;;;;;;;16.75;15.73;;;;;;;17.93;76.67;100732.66;5025272;28;20041;-69
2022/07/07 10:25:38;;;;;;;16.92;15.82;;;;;;;17.93;76.63;100720.19;5027832;28;20022;-69
2022/07/07 10:28:03;;;;;;;14.07;13.18;;;;;;;17.86;76.07;100721.28;5024414;28;20499;-70
2022/07/07 10:30:31;;;;;;;14.07;13.27;;;;;;;17.91;76.68;100724.69;5019248;28;20503;-70
2022/07/07 10:32:57;;;;;;;13.07;12.18;;;;;;;18.14;76.16;100723.06;5020815;28;20120;-70
2022/07/07 10:35:25;;;;;;;15.98;15.00;;;;;;;18.24;75.95;100727.16;5024167;28;20108;-70
2022/07/07 10:37:53;;;;;;;13.95;13.15;;;;;;;18.22;74.85;100723.66;5022262;28;20443;-69
2022/07/07 10:40:24;;;;;;;11.25;10.55;;;;;;;17.96;74.82;100729.88;5022846;28;20144;-69
2022/07/07 10:43:19;;;;;;;12.63;11.75;;;;;;;17.77;75.48;100724.25;5025493;28;20034;-70
2022/07/07 10:45:46;;;;;;;18.63;17.58;;;;;;;17.83;76.21;100720.53;5023663;28;20033;-70
2022/07/07 10:48:44;;;;;;;15.63;14.68;;;;;;;17.52;77.17;100727.69;5022592;28;20045;-70
2022/07/07 10:51:17;;;;;;;19.20;18.00;;;;;;;17.41;78.81;100728.97;5030180;28;20452;-70
2022/07/07 10:53:55;;;;;;;12.50;11.75;;;;;;;17.46;77.46;100722.56;5023899;28;20492;-70
2022/07/07 10:56:21;;;;;;;26.77;25.08;;;;;;;17.46;78.54;100717.22;5025722;28;20108;-70
2022/07/07 10:58:58;;;;;;;17.90;16.80;;;;;;;17.49;77.42;100717.13;5029440;28;20017;-70
2022/07/07 11:01:32;;;;;;;18.98;17.52;;;;;;;17.55;78.12;100723.19;5028040;28;20033;-71
2022/07/07 11:03:57;;;;;;;25.83;24.35;;;;;;;17.62;77.89;100722.09;5026698;28;20444;-71
2022/07/07 11:06:23;;;;;;;28.92;27.42;;;;;;;17.65;78.66;100716.63;5028417;28;20124;-70
2022/07/07 11:08:57;;;;;;;20.67;19.48;;;;;;;17.69;76.81;100710.28;5026897;28;20032;-71
2022/07/07 11:11:22;;;;;;;29.00;27.40;;;;;;;17.66;78.24;100723.75;5027199;28;20034;-71
2022/07/07 11:14:00;;;;;;;26.45;24.88;;;;;;;17.75;78.02;100715.41;5027310;28;20030;-71
2022/07/07 11:16:27;;;;;;;30.90;28.70;;;;;;;17.92;78.61;100715.78;5030653;28;20107;-71
2022/07/07 11:18:57;;;;;;;32.22;30.45;;;;;;;18.11;76.21;100715.16;5031530;28;20021;-70
2022/07/07 11:21:39;;;;;;;31.30;29.50;;;;;;;18.10;76.84;100719.63;5029782;28;20045;-70
2022/07/07 11:24:13;;;;;;;;;;;;;;;18.22;77.28;100723.66;5031371;28;20505;-70